createdAt,value
2017-11-10T00:00:14.952Z,17.52
2017-11-10T00:02:42.914Z,17.27
2017-11-10T00:05:10.473Z,18.40
2017-11-10T00:07:39.056Z,15.93
2017-11-10T00:10:06.909Z,17.12
2017-11-10T00:12:34.481Z,16.55
2017-11-10T00:15:02.039Z,15.52
2017-11-10T00:17:30.624Z,17.25
2017-11-10T00:19:58.139Z,16.92
2017-11-10T00:22:25.687Z,18.27
2017-11-10T00:24:53.336Z,19.50
2017-11-10T00:27:20.867Z,18.00
2017-11-10T00:29:48.419Z,19.15
2017-11-10T00:32:16.183Z,17.10
2017-11-10T00:34:43.700Z,17.50
2017-11-10T00:37:11.222Z,17.45
2017-11-10T00:39:38.799Z,17.83
2017-11-10T00:42:06.934Z,19.95
2017-11-10T00:44:35.462Z,21.75
2017-11-10T00:47:04.854Z,19.62
2017-11-10T00:49:32.396Z,19.42
2017-11-10T00:51:59.934Z,20.33
2017-11-10T00:54:28.539Z,20.05
2017-11-10T00:56:56.063Z,21.30
2017-11-10T00:59:23.583Z,20.12
2017-11-10T01:01:51.397Z,19.52
2017-11-10T01:04:18.958Z,19.80
2017-11-10T01:06:46.516Z,20.98
2017-11-10T01:09:14.103Z,20.58
2017-11-10T01:11:41.634Z,23.23
2017-11-10T01:14:09.193Z,21.23
2017-11-10T01:16:37.162Z,21.55
2017-11-10T01:19:04.728Z,20.95
2017-11-10T01:21:32.280Z,22.67
2017-11-10T01:24:00.055Z,22.35
2017-11-10T01:26:28.407Z,23.98
2017-11-10T01:28:55.927Z,23.55
2017-11-10T01:31:23.476Z,24.70
2017-11-10T01:33:51.040Z,24.45
2017-11-10T01:36:18.562Z,24.27
2017-11-10T01:38:46.527Z,21.30
2017-11-10T01:41:14.085Z,24.55
2017-11-10T01:43:41.603Z,23.95
2017-11-10T01:46:09.212Z,22.98
2017-11-10T01:48:42.703Z,23.85
2017-11-10T01:51:10.266Z,26.33
2017-11-10T01:53:37.778Z,24.50
2017-11-10T01:56:05.299Z,21.42
2017-11-10T01:58:33.211Z,23.87
2017-11-10T02:01:00.773Z,22.30
2017-11-10T02:03:28.291Z,20.60
2017-11-10T02:05:56.127Z,24.50
2017-11-10T02:08:23.655Z,23.62
2017-11-10T02:10:51.180Z,22.48
2017-11-10T02:13:19.010Z,21.17
2017-11-10T02:15:46.527Z,23.12
2017-11-10T02:18:14.040Z,21.92
2017-11-10T02:20:41.993Z,23.23
2017-11-10T02:23:09.554Z,22.50
2017-11-10T02:25:37.113Z,23.90
2017-11-10T02:28:04.876Z,24.70
2017-11-10T02:30:32.438Z,21.05
2017-11-10T02:32:59.995Z,22.35
2017-11-10T02:35:27.656Z,24.45
2017-11-10T02:37:55.220Z,23.65
2017-11-10T02:40:22.775Z,22.05
2017-11-10T02:42:50.356Z,23.35
2017-11-10T02:45:17.920Z,21.87
2017-11-10T02:47:45.440Z,22.92
2017-11-10T02:50:13.217Z,20.48
2017-11-10T02:52:40.775Z,18.27
2017-11-10T02:55:08.336Z,20.05
2017-11-10T02:57:36.098Z,21.08
2017-11-10T03:00:03.658Z,19.40
2017-11-10T03:02:31.216Z,21.15
2017-11-10T03:04:58.967Z,18.33
2017-11-10T03:07:26.488Z,17.73
2017-11-10T03:09:54.013Z,20.10
2017-11-10T03:12:21.861Z,20.00
2017-11-10T03:14:49.430Z,19.60
2017-11-10T03:17:16.987Z,19.95
2017-11-10T03:19:44.847Z,19.17
2017-11-10T03:22:12.405Z,18.48
2017-11-10T03:24:39.974Z,18.73
2017-11-10T03:27:07.933Z,21.30
2017-11-10T03:29:35.465Z,20.88
2017-11-10T03:32:02.976Z,20.27
2017-11-10T03:34:30.535Z,20.00
2017-11-10T03:36:58.080Z,19.77
2017-11-10T03:39:25.632Z,19.95
2017-11-10T03:41:53.191Z,18.85
2017-11-10T03:44:20.763Z,18.25
2017-11-10T03:46:48.304Z,18.92
2017-11-10T03:49:15.876Z,17.25
2017-11-10T03:51:43.423Z,17.02
2017-11-10T03:54:10.982Z,16.40
2017-11-10T03:56:38.746Z,18.62
2017-11-10T03:59:06.256Z,15.27
2017-11-10T04:01:33.770Z,17.10
2017-11-10T04:04:01.515Z,14.95
2017-11-10T04:06:29.038Z,17.00
2017-11-10T04:08:56.555Z,18.37
2017-11-10T04:11:24.131Z,17.45
2017-11-10T04:13:51.659Z,15.48
2017-11-10T04:16:19.217Z,15.70
2017-11-10T04:18:46.776Z,17.48
2017-11-10T04:21:14.329Z,18.40
2017-11-10T04:23:41.939Z,16.55
2017-11-10T04:26:09.965Z,16.98
2017-11-10T04:28:37.474Z,17.33
2017-11-10T04:31:04.991Z,14.30
2017-11-10T04:33:32.751Z,16.08
2017-11-10T04:36:00.305Z,15.13
2017-11-10T04:38:27.864Z,17.75
2017-11-10T04:40:55.630Z,14.35
2017-11-10T04:43:24.276Z,15.75
2017-11-10T04:45:51.893Z,16.00
2017-11-10T04:48:19.715Z,17.37
2017-11-10T04:50:47.231Z,16.15
2017-11-10T04:53:14.755Z,15.77
2017-11-10T04:55:42.313Z,17.10
2017-11-10T04:58:09.876Z,14.23
2017-11-10T05:00:37.432Z,15.82
2017-11-10T05:03:05.297Z,14.95
2017-11-10T05:05:32.847Z,14.82
2017-11-10T05:08:00.368Z,14.50
2017-11-10T05:10:28.360Z,14.75
2017-11-10T05:12:55.875Z,14.70
2017-11-10T05:15:23.400Z,16.15
2017-11-10T05:17:51.267Z,14.32
2017-11-10T05:20:19.544Z,14.13
2017-11-10T05:22:47.102Z,13.68
2017-11-10T05:25:14.812Z,13.23
2017-11-10T05:27:42.324Z,13.62
2017-11-10T05:30:09.883Z,13.57
2017-11-10T05:32:37.550Z,14.25
2017-11-10T05:35:05.108Z,14.85
2017-11-10T05:37:32.663Z,14.30
2017-11-10T05:40:00.324Z,14.07
2017-11-10T05:42:28.701Z,14.95
2017-11-10T05:44:56.251Z,13.55
2017-11-10T05:47:23.923Z,13.60
2017-11-10T05:49:51.444Z,13.40
2017-11-10T05:52:18.961Z,13.68
2017-11-10T05:54:46.618Z,14.52
2017-11-10T05:57:14.131Z,15.32
2017-11-10T05:59:41.651Z,14.90
2017-11-10T06:02:09.463Z,14.00
2017-11-10T06:04:36.992Z,14.00
2017-11-10T06:07:04.532Z,13.88
2017-11-10T06:09:32.080Z,15.05
2017-11-10T06:11:59.603Z,14.30
2017-11-10T06:14:27.124Z,13.50
2017-11-10T06:16:54.942Z,12.05
2017-11-10T06:19:22.498Z,14.15
2017-11-10T06:21:50.011Z,13.05
2017-11-10T06:24:17.717Z,13.52
2017-11-10T06:26:45.277Z,14.40
2017-11-10T06:29:12.827Z,14.20
2017-11-10T06:31:40.602Z,11.80
2017-11-10T06:34:08.181Z,14.25
2017-11-10T06:36:35.719Z,13.95
2017-11-10T06:39:03.461Z,13.38
2017-11-10T06:41:30.974Z,12.52
2017-11-10T06:43:58.500Z,13.50
2017-11-10T06:46:26.261Z,12.70
2017-11-10T06:48:53.774Z,12.90
2017-11-10T06:51:21.296Z,13.23
2017-11-10T06:53:49.042Z,13.00
2017-11-10T06:56:16.602Z,13.98
2017-11-10T06:58:44.159Z,14.43
2017-11-10T07:01:11.871Z,14.60
2017-11-10T07:03:39.756Z,13.75
2017-11-10T07:06:07.284Z,12.82
2017-11-10T07:08:34.852Z,12.45
2017-11-10T07:11:02.376Z,12.73
2017-11-10T07:13:29.924Z,14.82
2017-11-10T07:15:57.780Z,14.23
2017-11-10T07:18:25.350Z,12.43
2017-11-10T07:20:52.909Z,13.43
2017-11-10T07:23:20.687Z,12.27
2017-11-10T07:25:48.230Z,13.77
2017-11-10T07:28:15.796Z,14.52
2017-11-10T07:30:43.378Z,14.75
2017-11-10T07:33:10.907Z,13.15
2017-11-10T07:35:38.421Z,11.77
2017-11-10T07:38:06.143Z,13.15
2017-11-10T07:40:33.761Z,12.52
2017-11-10T07:43:01.277Z,13.88
2017-11-10T07:45:28.995Z,11.82
2017-11-10T07:47:56.982Z,12.80
2017-11-10T07:50:24.495Z,11.93
2017-11-10T07:52:52.204Z,12.80
2017-11-10T07:55:19.762Z,10.85
2017-11-10T07:57:47.320Z,10.85
2017-11-10T08:00:15.083Z,12.88
2017-11-10T08:02:42.624Z,12.35
2017-11-10T08:05:10.202Z,9.48
2017-11-10T08:07:37.757Z,10.52
2017-11-10T08:10:05.341Z,12.45
2017-11-10T08:12:32.885Z,11.80
2017-11-10T08:15:00.629Z,9.75
2017-11-10T08:17:28.153Z,11.60
2017-11-10T08:19:55.689Z,8.43
2017-11-10T08:22:23.251Z,10.75
2017-11-10T08:24:50.775Z,13.43
2017-11-10T08:27:18.287Z,12.20
2017-11-10T08:29:46.002Z,10.40
2017-11-10T08:32:13.520Z,10.60
2017-11-10T08:34:41.071Z,13.62
2017-11-10T08:37:08.800Z,12.82
2017-11-10T08:39:36.336Z,11.52
2017-11-10T08:42:03.895Z,12.50
2017-11-10T08:44:31.581Z,11.70
2017-11-10T08:46:59.116Z,13.45
2017-11-10T08:49:27.188Z,11.38
2017-11-10T08:51:55.236Z,13.68
2017-11-10T08:54:22.833Z,13.57
2017-11-10T08:56:50.381Z,14.68
2017-11-10T08:59:18.120Z,12.60
2017-11-10T09:01:45.632Z,14.13
2017-11-10T09:04:13.157Z,13.02
2017-11-10T09:06:40.922Z,12.37
2017-11-10T09:09:08.439Z,12.57
2017-11-10T09:11:35.963Z,13.48
2017-11-10T09:14:03.783Z,11.95
2017-11-10T09:16:31.308Z,13.52
2017-11-10T09:18:58.827Z,11.90
2017-11-10T09:21:26.897Z,10.18
2017-11-10T09:23:54.467Z,10.98
2017-11-10T09:26:21.987Z,11.35
2017-11-10T09:28:55.380Z,8.90
2017-11-10T09:34:37.823Z,9.55
2017-11-10T09:37:05.340Z,10.52
2017-11-10T09:39:32.880Z,11.12
2017-11-10T09:42:06.284Z,10.38
2017-11-10T09:47:44.659Z,10.60
2017-11-10T09:50:17.815Z,10.27
2017-11-10T09:52:56.036Z,11.23
2017-11-10T09:55:44.160Z,10.70
2017-11-10T10:01:19.704Z,12.65
2017-11-10T10:03:47.649Z,11.10
2017-11-10T10:06:17.963Z,10.50
2017-11-10T10:08:48.113Z,10.63
2017-11-10T10:11:23.322Z,10.55
2017-11-10T10:14:08.517Z,10.65
2017-11-10T10:20:00.331Z,8.90
2017-11-10T10:25:25.145Z,8.00
2017-11-10T10:27:52.657Z,9.93
2017-11-10T10:30:20.174Z,8.48
2017-11-10T10:32:48.027Z,9.02
2017-11-10T10:35:15.540Z,10.98
2017-11-10T10:37:43.055Z,11.57
2017-11-10T10:40:10.839Z,9.70
2017-11-10T10:42:38.355Z,7.87
2017-11-10T10:45:05.867Z,8.98
2017-11-10T10:47:33.647Z,9.63
2017-11-10T10:50:01.188Z,10.00
2017-11-10T10:52:28.703Z,9.45
2017-11-10T10:54:56.389Z,9.60
2017-11-10T10:57:23.907Z,7.78
2017-11-10T10:59:51.434Z,10.35
2017-11-10T11:02:19.168Z,10.05
2017-11-10T11:04:46.731Z,9.52
2017-11-10T11:07:14.285Z,9.80
2017-11-10T11:09:42.132Z,8.30
2017-11-10T11:12:09.648Z,8.52
2017-11-10T11:14:37.163Z,7.95
2017-11-10T11:17:04.711Z,7.87
2017-11-10T11:19:32.236Z,10.05
2017-11-10T11:21:59.748Z,9.90
2017-11-10T11:24:27.315Z,10.18
2017-11-10T11:26:54.851Z,10.73
2017-11-10T11:29:22.367Z,7.00
2017-11-10T11:31:50.155Z,7.07
2017-11-10T11:34:17.668Z,7.07
2017-11-10T11:36:45.190Z,7.53
2017-11-10T11:39:12.941Z,7.15
2017-11-10T11:41:40.451Z,7.00
2017-11-10T11:44:07.962Z,9.88
2017-11-10T11:46:35.509Z,9.13
2017-11-10T11:49:03.027Z,5.37
2017-11-10T11:51:30.568Z,5.00
2017-11-10T11:53:58.396Z,8.13
2017-11-10T11:56:25.920Z,6.35
2017-11-10T11:58:53.480Z,8.15
2017-11-10T12:01:21.120Z,8.23
2017-11-10T12:03:48.653Z,6.15
2017-11-10T12:06:16.172Z,5.78
2017-11-10T12:08:43.957Z,5.62
2017-11-10T12:11:11.476Z,7.82
2017-11-10T12:13:39.042Z,6.35
2017-11-10T12:16:06.771Z,5.87
2017-11-10T12:18:34.318Z,6.25
2017-11-10T12:21:01.878Z,6.43
2017-11-10T12:23:29.622Z,5.72
2017-11-10T12:25:57.147Z,6.40
2017-11-10T12:28:24.667Z,8.10
2017-11-10T12:30:52.227Z,8.05
2017-11-10T12:33:19.878Z,8.82
2017-11-10T12:35:47.420Z,6.68
2017-11-10T12:38:15.077Z,7.70
2017-11-10T12:40:42.591Z,6.35
2017-11-10T12:43:10.114Z,8.90
2017-11-10T12:45:37.854Z,6.95
2017-11-10T12:48:05.438Z,8.60
2017-11-10T12:50:32.952Z,8.48
2017-11-10T12:53:00.965Z,7.72
2017-11-10T12:55:28.526Z,8.80
2017-11-10T12:57:56.044Z,7.45
2017-11-10T13:00:23.755Z,9.77
2017-11-10T13:02:51.305Z,8.80
2017-11-10T13:05:18.825Z,6.85
2017-11-10T13:07:46.526Z,5.87
2017-11-10T13:10:14.291Z,10.80
2017-11-10T13:12:41.847Z,8.48
2017-11-10T13:15:09.397Z,9.90
2017-11-10T13:17:36.968Z,8.40
2017-11-10T13:20:04.532Z,8.95
2017-11-10T13:22:32.409Z,8.02
2017-11-10T13:25:00.361Z,8.77
2017-11-10T13:27:28.021Z,9.27
2017-11-10T13:29:56.032Z,8.20
2017-11-10T13:32:23.553Z,8.32
2017-11-10T13:34:51.101Z,7.32
2017-11-10T13:37:19.077Z,9.27
2017-11-10T13:39:46.595Z,7.90
2017-11-10T13:42:14.176Z,8.60
2017-11-10T13:44:42.040Z,7.78
2017-11-10T13:47:10.211Z,7.22
2017-11-10T13:49:37.984Z,7.20
2017-11-10T13:52:05.753Z,7.95
2017-11-10T13:54:33.272Z,7.45
2017-11-10T13:57:01.030Z,8.52
2017-11-10T13:59:28.908Z,8.10
2017-11-10T14:01:56.578Z,5.43
2017-11-10T14:04:24.099Z,7.20
2017-11-10T14:06:51.659Z,5.45
2017-11-10T14:09:19.190Z,6.90
2017-11-10T14:11:46.741Z,5.93
2017-11-10T14:14:14.359Z,5.62
2017-11-10T14:16:42.071Z,5.22
2017-11-10T14:19:09.650Z,4.40
2017-11-10T14:21:37.572Z,6.18
2017-11-10T14:24:05.084Z,3.70
2017-11-10T14:26:32.591Z,4.53
2017-11-10T14:29:00.399Z,5.50
2017-11-10T14:31:27.984Z,4.72
2017-11-10T14:33:55.496Z,5.18
2017-11-10T14:36:23.351Z,4.60
2017-11-10T14:38:51.845Z,4.95
2017-11-10T14:41:19.402Z,4.45
2017-11-10T14:43:47.161Z,4.50
2017-11-10T14:46:15.966Z,3.85
2017-11-10T14:48:43.513Z,4.05
2017-11-10T14:51:11.709Z,4.47
2017-11-10T14:53:39.553Z,4.05
2017-11-10T14:56:07.214Z,3.37
2017-11-10T14:58:34.931Z,4.00
2017-11-10T15:01:03.126Z,4.05
2017-11-10T15:03:30.794Z,4.90
2017-11-10T15:05:58.782Z,5.40
2017-11-10T15:08:26.321Z,4.68
2017-11-10T15:10:53.834Z,5.45
2017-11-10T15:13:21.809Z,3.62
2017-11-10T15:15:49.757Z,3.95
2017-11-10T15:18:17.500Z,2.90
2017-11-10T15:20:45.181Z,3.65
2017-11-10T15:23:13.026Z,2.80
2017-11-10T15:25:40.790Z,3.20
2017-11-10T15:28:08.574Z,3.50
2017-11-10T15:30:36.162Z,3.20
2017-11-10T15:33:03.672Z,3.90
2017-11-10T15:35:31.358Z,2.80
2017-11-10T15:37:58.919Z,3.45
2017-11-10T15:40:26.658Z,2.97
2017-11-10T15:42:54.529Z,3.80
2017-11-10T15:45:22.288Z,3.75
2017-11-10T15:47:49.898Z,3.28
2017-11-10T15:50:17.763Z,2.95
2017-11-10T15:52:45.576Z,4.55
2017-11-10T15:55:13.141Z,4.05
2017-11-10T15:57:41.314Z,2.40
2017-11-10T16:00:08.850Z,2.75
2017-11-10T16:02:36.532Z,2.67
2017-11-10T16:05:04.604Z,2.25
2017-11-10T16:07:32.266Z,3.72
2017-11-10T16:09:59.927Z,2.45
2017-11-10T16:12:27.588Z,2.60
2017-11-10T16:14:55.157Z,2.00
2017-11-10T16:17:22.750Z,3.33
2017-11-10T16:19:50.753Z,2.20
2017-11-10T16:22:18.430Z,2.35
2017-11-10T16:24:46.115Z,2.67
2017-11-10T16:27:14.272Z,1.70
2017-11-10T16:29:41.866Z,2.08
2017-11-10T16:32:09.698Z,2.10
2017-11-10T16:34:37.975Z,1.80
2017-11-10T16:37:05.568Z,1.30
2017-11-10T16:39:33.302Z,1.62
2017-11-10T16:42:01.062Z,1.60
2017-11-10T16:44:28.571Z,1.60
2017-11-10T16:46:56.275Z,1.40
2017-11-10T16:49:23.848Z,1.17
2017-11-10T16:51:51.350Z,0.80
2017-11-10T16:54:18.876Z,1.55
2017-11-10T16:56:46.824Z,1.05
2017-11-10T16:59:14.385Z,1.17
2017-11-10T17:01:41.999Z,0.85
2017-11-10T17:04:09.896Z,1.15
2017-11-10T17:06:37.425Z,1.00
2017-11-10T17:09:04.975Z,0.90
2017-11-10T17:11:32.903Z,0.82
2017-11-10T17:14:00.455Z,0.98
2017-11-10T17:16:28.220Z,0.50
2017-11-10T17:18:56.146Z,0.95
2017-11-10T17:21:23.655Z,0.73
2017-11-10T17:23:51.244Z,0.68
2017-11-10T17:26:18.871Z,0.80
2017-11-10T17:28:46.492Z,0.88
2017-11-10T17:31:14.007Z,0.75
2017-11-10T17:33:41.748Z,0.60
2017-11-10T17:36:09.505Z,0.60
2017-11-10T17:38:37.015Z,0.62
2017-11-10T17:41:05.146Z,0.70
2017-11-10T17:43:32.905Z,0.50
2017-11-10T17:46:00.669Z,0.65
2017-11-10T17:48:28.641Z,0.60
2017-11-10T17:50:56.224Z,0.70
2017-11-10T17:53:23.962Z,0.60
2017-11-10T17:55:52.179Z,0.65
2017-11-10T17:58:20.103Z,1.00
2017-11-10T18:00:47.693Z,0.70
2017-11-10T18:03:15.517Z,0.65
2017-11-10T18:05:43.311Z,0.80
2017-11-10T18:08:11.160Z,1.02
2017-11-10T18:10:38.997Z,0.60
2017-11-10T18:13:06.891Z,0.60
2017-11-10T18:15:35.583Z,0.43
2017-11-10T18:18:03.647Z,0.65
2017-11-10T18:20:31.207Z,0.82
2017-11-10T18:22:58.870Z,0.98
2017-11-10T18:25:26.639Z,0.60
2017-11-10T18:27:55.009Z,0.68
2017-11-10T18:30:22.981Z,0.70
2017-11-10T18:32:51.153Z,0.80
2017-11-10T18:35:18.815Z,0.52
2017-11-10T18:37:46.375Z,1.10
2017-11-10T18:40:14.034Z,0.90
2017-11-10T18:42:41.572Z,0.60
2017-11-10T18:45:09.088Z,0.50
2017-11-10T18:47:37.431Z,1.60
2017-11-10T18:50:05.093Z,0.80
2017-11-10T18:52:36.758Z,0.77
2017-11-10T18:55:04.349Z,0.60
2017-11-10T18:57:32.991Z,0.60
2017-11-10T19:00:00.763Z,0.80
2017-11-10T19:02:28.314Z,0.68
2017-11-10T19:04:55.825Z,0.52
2017-11-10T19:07:23.741Z,0.90
2017-11-10T19:09:51.483Z,0.90
2017-11-10T19:12:19.036Z,0.60
2017-11-10T19:14:46.661Z,0.65
2017-11-10T19:17:14.286Z,0.50
2017-11-10T19:19:41.844Z,0.70
2017-11-10T19:22:09.745Z,0.70
2017-11-10T19:24:37.724Z,0.70
2017-11-10T19:27:05.527Z,0.70
2017-11-10T19:29:33.718Z,0.80
2017-11-10T19:32:01.272Z,0.73
2017-11-10T19:34:29.147Z,0.70
2017-11-10T19:36:57.008Z,0.80
2017-11-10T19:39:24.669Z,0.70
2017-11-10T19:41:52.743Z,0.80
2017-11-10T19:44:20.783Z,1.00
2017-11-10T19:46:50.084Z,0.60
2017-11-10T19:49:17.937Z,0.60
2017-11-10T19:51:47.074Z,0.93
2017-11-10T19:54:14.977Z,1.10
2017-11-10T19:56:42.837Z,1.60
2017-11-10T19:59:11.441Z,0.70
2017-11-10T20:01:39.262Z,1.02
2017-11-10T20:04:07.097Z,1.08
2017-11-10T20:06:34.889Z,1.05
2017-11-10T20:09:02.724Z,1.00
2017-11-10T20:11:30.415Z,1.20
2017-11-10T20:13:58.588Z,1.27
2017-11-10T20:16:27.318Z,0.95
2017-11-10T20:18:55.985Z,1.90
2017-11-10T20:21:23.990Z,1.12
2017-11-10T20:23:52.646Z,1.70
2017-11-10T20:26:20.524Z,1.30
2017-11-10T20:28:48.890Z,1.48
2017-11-10T20:31:16.826Z,1.80
2017-11-10T20:33:44.604Z,1.62
2017-11-10T20:36:12.800Z,2.00
2017-11-10T20:38:40.769Z,1.60
2017-11-10T20:41:08.700Z,1.50
2017-11-10T20:43:36.322Z,1.50
2017-11-10T20:46:04.027Z,2.10
2017-11-10T20:48:32.012Z,2.17
2017-11-10T20:51:00.238Z,2.05
2017-11-10T20:53:28.237Z,2.67
2017-11-10T20:55:56.616Z,2.87
2017-11-10T20:58:24.487Z,2.10
2017-11-10T21:00:52.245Z,2.40
2017-11-10T21:03:20.035Z,2.70
2017-11-10T21:05:48.012Z,1.40
2017-11-10T21:08:15.952Z,2.40
2017-11-10T21:10:43.714Z,2.53
2017-11-10T21:13:12.643Z,2.42
2017-11-10T21:15:40.703Z,3.12
2017-11-10T21:18:08.539Z,3.67
2017-11-10T21:20:36.656Z,3.70
2017-11-10T21:23:05.092Z,3.60
2017-11-10T21:25:32.961Z,3.85
2017-11-10T21:28:01.027Z,2.70
2017-11-10T21:30:28.690Z,2.97
2017-11-10T21:32:56.556Z,2.70
2017-11-10T21:35:24.528Z,2.40
2017-11-10T21:37:52.406Z,2.30
2017-11-10T21:40:20.259Z,2.10
2017-11-10T21:42:48.227Z,2.10
2017-11-10T21:45:16.329Z,1.85
2017-11-10T21:47:44.169Z,2.08
2017-11-10T21:50:12.162Z,2.35
2017-11-10T21:52:40.041Z,2.42
2017-11-10T21:55:07.873Z,2.55
2017-11-10T21:57:35.630Z,3.10
2017-11-10T22:00:03.280Z,3.60
2017-11-10T22:02:30.952Z,2.80
2017-11-10T22:04:58.820Z,3.20
2017-11-10T22:07:26.377Z,2.95
2017-11-10T22:09:54.243Z,3.67
2017-11-10T22:12:22.015Z,4.45
2017-11-10T22:14:49.671Z,2.87
2017-11-10T22:17:17.434Z,3.17
2017-11-10T22:19:45.519Z,3.45
2017-11-10T22:22:13.782Z,3.70
2017-11-10T22:24:41.544Z,4.45
2017-11-10T22:27:09.883Z,3.53
2017-11-10T22:29:37.790Z,3.55
2017-11-10T22:32:05.452Z,3.33
2017-11-10T22:34:33.203Z,3.45
2017-11-10T22:37:02.217Z,4.45
2017-11-10T22:39:29.762Z,4.07
2017-11-10T22:41:57.636Z,3.90
2017-11-10T22:44:25.398Z,4.30
2017-11-10T22:46:53.013Z,5.00
2017-11-10T22:49:21.131Z,5.00
2017-11-10T22:51:49.376Z,5.20
2017-11-10T22:54:17.067Z,5.53
2017-11-10T22:56:46.369Z,5.20
2017-11-10T22:59:14.997Z,5.47
2017-11-10T23:01:42.919Z,6.65
2017-11-10T23:04:11.027Z,5.87
2017-11-10T23:06:38.960Z,5.10
2017-11-10T23:09:07.337Z,5.32
2017-11-10T23:11:35.099Z,6.37
2017-11-10T23:14:02.661Z,6.35
2017-11-10T23:16:30.425Z,5.90
2017-11-10T23:18:58.394Z,6.20
2017-11-10T23:21:25.912Z,4.70
2017-11-10T23:23:53.438Z,6.30
2017-11-10T23:26:21.072Z,6.90
2017-11-10T23:28:48.629Z,7.10
2017-11-10T23:31:16.188Z,6.07
2017-11-10T23:33:43.760Z,6.90
2017-11-10T23:36:11.304Z,6.47
2017-11-10T23:38:38.881Z,6.30
2017-11-10T23:41:06.640Z,5.45
2017-11-10T23:43:34.177Z,6.25
2017-11-10T23:46:01.693Z,6.32
2017-11-10T23:48:29.354Z,5.87
2017-11-10T23:50:56.970Z,6.35
2017-11-10T23:53:24.529Z,6.10
2017-11-10T23:55:52.147Z,6.72
2017-11-10T23:58:19.688Z,6.65
